createdAt,value
2022-11-29T00:00:16.953Z,4.85
2022-11-29T00:05:38.873Z,5.35
2022-11-29T00:10:40.792Z,4.43
2022-11-29T00:15:44.076Z,4.00
2022-11-29T00:20:45.955Z,5.63
2022-11-29T00:25:47.897Z,2.35
2022-11-29T00:30:51.144Z,8.48
2022-11-29T00:35:53.198Z,4.32
2022-11-29T00:40:55.207Z,7.03
2022-11-29T00:45:58.517Z,4.22
2022-11-29T00:51:00.814Z,5.00
2022-11-29T00:56:03.725Z,4.55
2022-11-29T01:01:07.102Z,6.15
2022-11-29T01:06:11.745Z,3.08
2022-11-29T01:16:20.007Z,2.42
2022-11-29T01:21:24.120Z,3.42
2022-11-29T01:26:28.035Z,3.47
2022-11-29T01:31:35.994Z,6.43
2022-11-29T01:36:37.985Z,5.00
2022-11-29T01:41:40.048Z,6.43
2022-11-29T01:46:44.894Z,3.08
2022-11-29T01:51:50.439Z,2.88
2022-11-29T01:56:53.122Z,3.15
2022-11-29T02:02:03.967Z,2.78
2022-11-29T02:07:05.967Z,1.85
2022-11-29T02:12:21.182Z,3.03
2022-11-29T02:17:33.103Z,4.53
2022-11-29T02:22:41.599Z,4.43
2022-11-29T02:28:21.620Z,2.67
2022-11-29T02:33:50.333Z,2.33
2022-11-29T02:39:07.943Z,7.65
2022-11-29T02:44:32.216Z,6.75
2022-11-29T02:49:53.598Z,5.25
2022-11-29T02:55:04.417Z,2.75
2022-11-29T03:05:18.607Z,5.10
2022-11-29T03:15:31.155Z,3.45
2022-11-29T03:20:45.114Z,3.45
2022-11-29T03:25:53.507Z,3.97
2022-11-29T03:31:01.437Z,3.22
2022-11-29T03:36:11.847Z,4.13
2022-11-29T03:41:23.403Z,3.35
2022-11-29T03:46:34.917Z,4.45
2022-11-29T03:51:49.663Z,5.60
2022-11-29T03:56:52.286Z,3.60
2022-11-29T04:02:12.803Z,11.43
2022-11-29T04:07:33.878Z,13.10
2022-11-29T04:12:58.086Z,7.72
2022-11-29T04:18:25.867Z,4.22
2022-11-29T04:23:48.514Z,3.03
2022-11-29T04:29:15.420Z,3.20
2022-11-29T04:34:34.370Z,5.75
2022-11-29T04:39:56.255Z,11.27
2022-11-29T04:45:22.928Z,6.50
2022-11-29T04:50:40.387Z,15.57
2022-11-29T04:55:51.072Z,7.10
2022-11-29T05:00:59.571Z,7.03
2022-11-29T05:06:19.716Z,4.70
2022-11-29T05:11:34.455Z,5.72
2022-11-29T05:16:48.903Z,5.47
2022-11-29T05:22:00.985Z,10.75
2022-11-29T05:27:14.150Z,2.72
2022-11-29T05:32:28.537Z,5.25
2022-11-29T05:37:43.154Z,7.13
2022-11-29T05:43:05.423Z,11.48
2022-11-29T05:48:17.599Z,12.60
2022-11-29T05:53:24.673Z,9.82
2022-11-29T05:58:46.381Z,11.65
2022-11-29T06:03:56.653Z,12.63
2022-11-29T06:09:06.247Z,11.85
2022-11-29T06:14:20.086Z,6.97
2022-11-29T06:19:37.524Z,6.53
2022-11-29T06:24:50.461Z,11.15
2022-11-29T06:30:02.327Z,9.73
2022-11-29T06:35:11.217Z,10.50
2022-11-29T06:40:15.879Z,15.45
2022-11-29T06:45:21.765Z,16.45
2022-11-29T06:50:38.293Z,13.20
2022-11-29T06:55:48.677Z,11.30
2022-11-29T07:01:00.686Z,16.90
2022-11-29T07:06:10.143Z,11.23
2022-11-29T07:11:14.204Z,11.30
2022-11-29T07:16:25.841Z,10.98
2022-11-29T07:21:44.158Z,2.90
2022-11-29T07:26:59.606Z,9.63
2022-11-29T07:32:12.836Z,8.65
2022-11-29T07:37:24.315Z,8.25
2022-11-29T07:42:37.724Z,9.05
2022-11-29T07:47:41.018Z,8.93
2022-11-29T07:52:46.210Z,12.38
2022-11-29T07:57:49.159Z,5.63
2022-11-29T08:02:52.457Z,10.07
2022-11-29T08:07:55.881Z,16.40
2022-11-29T08:12:57.882Z,18.05
2022-11-29T08:18:01.838Z,16.70
2022-11-29T08:23:03.871Z,17.42
2022-11-29T08:28:06.207Z,15.65
2022-11-29T08:33:09.465Z,12.25
2022-11-29T08:38:11.371Z,15.85
2022-11-29T08:43:13.371Z,11.82
2022-11-29T08:48:16.616Z,12.90
2022-11-29T08:53:37.288Z,4.70
2022-11-29T08:58:40.167Z,8.95
2022-11-29T09:03:59.955Z,12.15
2022-11-29T09:09:01.971Z,13.13
2022-11-29T09:14:06.362Z,8.15
2022-11-29T09:19:10.157Z,12.57
2022-11-29T09:29:15.910Z,7.53
2022-11-29T09:39:21.072Z,8.27
2022-11-29T09:44:38.348Z,9.13
2022-11-29T09:49:52.049Z,5.88
2022-11-29T09:55:04.062Z,10.77
2022-11-29T10:00:15.713Z,9.82
2022-11-29T10:05:24.115Z,8.48
2022-11-29T10:10:31.016Z,12.07
2022-11-29T10:15:38.561Z,12.18
2022-11-29T10:20:48.795Z,10.88
2022-11-29T10:25:53.724Z,18.38
2022-11-29T10:31:16.293Z,13.27
2022-11-29T10:41:26.865Z,16.08
2022-11-29T10:46:33.031Z,11.85
2022-11-29T10:51:36.740Z,14.75
2022-11-29T11:01:43.111Z,13.20
2022-11-29T11:06:51.424Z,15.43
2022-11-29T11:11:55.654Z,11.38
2022-11-29T11:17:15.413Z,21.55
2022-11-29T11:22:23.148Z,10.63
2022-11-29T11:27:34.026Z,5.13
2022-11-29T11:32:36.952Z,10.52
2022-11-29T11:37:40.255Z,7.85
2022-11-29T11:42:44.154Z,9.48
2022-11-29T11:47:49.189Z,31.00
2022-11-29T11:52:55.698Z,23.00
2022-11-29T11:58:03.321Z,33.13
2022-11-29T12:03:24.897Z,35.65
2022-11-29T12:08:29.667Z,33.80
2022-11-29T12:13:35.711Z,43.63
2022-11-29T12:18:44.113Z,36.47
2022-11-29T12:23:53.158Z,35.33
2022-11-29T12:28:55.176Z,28.80
2022-11-29T12:34:10.013Z,37.58
2022-11-29T12:39:26.690Z,45.17
2022-11-29T12:44:39.500Z,43.97
2022-11-29T12:50:04.790Z,37.65
2022-11-29T12:55:19.745Z,38.15
2022-11-29T13:00:22.697Z,40.63
2022-11-29T13:05:43.406Z,46.00
2022-11-29T13:10:58.048Z,45.70
2022-11-29T13:16:05.845Z,47.65
2022-11-29T13:21:13.635Z,46.92
2022-11-29T13:26:18.636Z,41.75
2022-11-29T13:31:22.627Z,38.45
2022-11-29T13:36:34.457Z,51.65
2022-11-29T13:41:45.699Z,46.38
2022-11-29T13:46:57.548Z,45.55
2022-11-29T13:52:05.219Z,53.35
2022-11-29T13:57:09.961Z,52.42
2022-11-29T14:02:28.235Z,41.38
2022-11-29T14:07:30.279Z,38.65
2022-11-29T14:12:38.367Z,46.60
2022-11-29T14:17:50.449Z,46.53
2022-11-29T14:23:13.940Z,45.15
2022-11-29T14:28:41.393Z,36.03
2022-11-29T14:34:01.121Z,52.00
2022-11-29T14:39:20.343Z,204.80
2022-11-29T15:10:57.097Z,24.50
2022-11-29T15:16:14.342Z,26.27
2022-11-29T15:21:31.068Z,24.70
2022-11-29T15:26:34.795Z,17.58
2022-11-29T15:31:37.295Z,14.85
2022-11-29T15:36:43.174Z,17.23
2022-11-29T15:41:46.474Z,23.42
2022-11-29T15:46:48.546Z,30.27
2022-11-29T15:51:55.892Z,26.65
2022-11-29T15:57:02.478Z,13.77
2022-11-29T16:02:15.702Z,17.88
2022-11-29T16:07:20.391Z,18.15
2022-11-29T16:12:24.842Z,13.25
2022-11-29T16:17:28.863Z,82.57
2022-11-29T16:22:32.141Z,57.70
2022-11-29T16:27:36.356Z,31.45
2022-11-29T16:37:46.195Z,16.45
2022-11-29T16:43:06.439Z,18.52
2022-11-29T16:48:28.728Z,87.57
2022-11-29T16:53:35.823Z,83.95
2022-11-29T16:59:25.064Z,84.43
2022-11-29T17:04:01.972Z,94.22
2022-11-29T17:09:04.638Z,108.05
2022-11-29T17:14:08.219Z,110.93
2022-11-29T17:19:12.601Z,107.80
2022-11-29T17:24:17.276Z,110.40
2022-11-29T17:29:20.653Z,89.53
2022-11-29T17:34:22.776Z,110.38
2022-11-29T17:39:24.725Z,87.72
2022-11-29T17:44:27.985Z,111.95
2022-11-29T17:49:30.100Z,109.45
2022-11-29T17:54:35.993Z,98.00
2022-11-29T17:59:39.289Z,96.53
2022-11-29T18:04:42.621Z,79.03
2022-11-29T18:09:45.910Z,66.60
2022-11-29T18:14:50.843Z,68.47
2022-11-29T18:19:52.806Z,89.93
2022-11-29T18:25:05.387Z,47.50
2022-11-29T18:30:18.269Z,67.00
2022-11-29T18:35:20.210Z,80.30
2022-11-29T18:40:22.924Z,133.35
2022-11-29T18:45:26.356Z,115.90
2022-11-29T18:50:28.276Z,101.57
2022-11-29T18:55:30.207Z,92.15
2022-11-29T19:00:33.798Z,79.25
2022-11-29T19:05:35.761Z,130.73
2022-11-29T19:10:38.484Z,131.98
2022-11-29T19:15:41.869Z,86.60
2022-11-29T19:20:43.854Z,107.90
2022-11-29T19:25:45.931Z,66.10
2022-11-29T19:30:54.995Z,56.35
2022-11-29T19:35:57.027Z,96.30
2022-11-29T19:40:59.082Z,91.70
2022-11-29T19:46:08.408Z,98.60
2022-11-29T19:51:11.870Z,150.43
2022-11-29T19:56:15.633Z,104.38
2022-11-29T20:01:22.781Z,135.93
2022-11-29T20:06:26.815Z,114.63
2022-11-29T20:11:29.212Z,138.52
2022-11-29T20:16:32.948Z,129.75
2022-11-29T20:21:35.190Z,122.05
2022-11-29T20:26:39.103Z,84.63
2022-11-29T20:31:50.148Z,91.93
2022-11-29T20:37:15.639Z,84.15
2022-11-29T20:42:44.365Z,95.07
2022-11-29T20:47:54.273Z,93.38
2022-11-29T20:53:13.143Z,95.78
2022-11-29T20:58:15.391Z,100.85
2022-11-29T21:03:20.119Z,122.47
2022-11-29T21:08:24.823Z,126.15
2022-11-29T21:13:27.298Z,154.07
2022-11-29T21:18:32.357Z,129.20
2022-11-29T21:23:51.936Z,111.85
2022-11-29T21:29:04.577Z,106.95
2022-11-29T21:34:08.737Z,87.93
2022-11-29T21:39:14.751Z,93.70
2022-11-29T21:44:16.724Z,93.60
2022-11-29T21:49:19.996Z,49.22
2022-11-29T21:54:21.905Z,62.35
2022-11-29T21:59:27.969Z,76.88
2022-11-29T22:04:31.262Z,63.45
2022-11-29T22:09:33.249Z,138.93
2022-11-29T22:14:35.191Z,112.90
2022-11-29T22:19:39.412Z,74.68
2022-11-29T22:24:41.391Z,95.40
2022-11-29T22:29:43.435Z,81.53
2022-11-29T22:34:46.984Z,106.43
2022-11-29T22:39:49.376Z,117.78
2022-11-29T22:44:51.778Z,88.82
2022-11-29T22:49:55.057Z,100.95
2022-11-29T22:55:02.902Z,104.18
2022-11-29T23:00:08.000Z,122.85
2022-11-29T23:05:11.283Z,80.57
2022-11-29T23:10:13.205Z,97.63
2022-11-29T23:15:15.335Z,142.10
2022-11-29T23:20:18.607Z,101.03
2022-11-29T23:25:20.503Z,81.35
2022-11-29T23:30:22.449Z,103.35
2022-11-29T23:35:25.768Z,81.38
2022-11-29T23:40:27.784Z,81.72
2022-11-29T23:45:29.736Z,86.75
2022-11-29T23:50:33.227Z,89.78
2022-11-29T23:55:35.165Z,89.45
